createdAt,value
2022-12-03T00:02:20.337Z,10.1
2022-12-03T00:07:20.237Z,10.5
2022-12-03T00:12:20.246Z,10.4
2022-12-03T00:17:20.252Z,10.5
2022-12-03T00:22:20.247Z,10.5
2022-12-03T00:27:20.249Z,10.4
2022-12-03T00:32:20.249Z,10.7
2022-12-03T00:37:20.333Z,11.4
2022-12-03T00:42:20.263Z,10.6
2022-12-03T00:47:20.268Z,10.8
2022-12-03T00:52:20.264Z,11.2
2022-12-03T00:57:20.273Z,10.4
2022-12-03T01:02:20.326Z,11.0
2022-12-03T01:07:20.274Z,10.7
2022-12-03T01:12:20.274Z,10.6
2022-12-03T01:17:20.319Z,11.4
2022-12-03T01:22:20.280Z,10.6
2022-12-03T01:27:20.299Z,11.0
2022-12-03T01:32:20.283Z,11.0
2022-12-03T01:37:20.292Z,11.6
2022-12-03T01:42:20.295Z,11.2
2022-12-03T01:47:20.312Z,11.3
2022-12-03T01:52:20.300Z,11.9
2022-12-03T01:57:20.298Z,11.9
2022-12-03T02:02:20.300Z,11.9
2022-12-03T02:07:20.311Z,11.7
2022-12-03T02:12:20.312Z,11.6
2022-12-03T02:17:20.302Z,12.8
2022-12-03T02:22:20.322Z,11.4
2022-12-03T02:27:20.312Z,13.1
2022-12-03T02:32:20.313Z,13.4
2022-12-03T02:37:20.312Z,11.9
2022-12-03T02:42:20.322Z,11.3
2022-12-03T02:47:20.316Z,12.3
2022-12-03T02:52:20.407Z,12.0
2022-12-03T02:57:20.407Z,12.4
2022-12-03T03:02:20.432Z,12.0
2022-12-03T03:07:20.327Z,13.0
2022-12-03T03:12:20.334Z,12.4
2022-12-03T03:17:20.329Z,11.3
2022-12-03T03:22:20.339Z,12.5
2022-12-03T03:27:20.334Z,11.8
2022-12-03T03:32:20.330Z,11.7
2022-12-03T03:37:20.343Z,11.8
2022-12-03T03:42:20.349Z,13.3
2022-12-03T03:47:20.351Z,12.5
2022-12-03T03:52:20.343Z,13.1
2022-12-03T03:57:20.349Z,12.7
2022-12-03T04:02:20.350Z,12.8
2022-12-03T04:07:20.351Z,12.6
2022-12-03T04:12:20.353Z,13.0
2022-12-03T04:17:20.358Z,14.2
2022-12-03T04:22:20.358Z,14.6
2022-12-03T04:27:20.364Z,13.5
2022-12-03T04:32:20.367Z,12.9
2022-12-03T04:37:20.363Z,14.0
2022-12-03T04:42:20.367Z,12.9
2022-12-03T04:47:20.371Z,15.0
2022-12-03T04:52:20.373Z,13.9
2022-12-03T04:57:20.376Z,14.1
2022-12-03T05:02:20.474Z,14.8
2022-12-03T05:07:20.380Z,16.1
2022-12-03T05:12:20.381Z,15.1
2022-12-03T05:17:20.379Z,15.0
2022-12-03T05:22:20.384Z,14.6
2022-12-03T05:27:23.870Z,14.4
2022-12-03T05:32:20.388Z,14.5
2022-12-03T05:37:20.386Z,16.2
2022-12-03T05:42:20.388Z,14.9
2022-12-03T05:47:20.395Z,14.4
2022-12-03T05:52:20.401Z,14.5
2022-12-03T05:57:20.400Z,14.3
2022-12-03T06:02:20.563Z,13.9
2022-12-03T06:07:20.409Z,13.0
2022-12-03T06:12:20.410Z,13.4
2022-12-03T06:17:20.414Z,13.5
2022-12-03T06:22:20.409Z,13.2
2022-12-03T06:27:20.414Z,12.4
2022-12-03T06:32:20.515Z,12.8
2022-12-03T06:37:20.713Z,12.5
2022-12-03T06:42:20.431Z,13.1
2022-12-03T06:47:20.425Z,12.3
2022-12-03T06:52:20.427Z,12.1
2022-12-03T06:57:20.435Z,12.2
2022-12-03T07:02:20.438Z,12.5
2022-12-03T07:07:20.440Z,12.5
2022-12-03T07:12:20.441Z,11.6
2022-12-03T07:17:20.447Z,11.6
2022-12-03T07:22:20.450Z,11.5
2022-12-03T07:27:20.444Z,11.1
2022-12-03T07:32:20.455Z,12.0
2022-12-03T07:37:23.320Z,12.9
2022-12-03T07:42:20.455Z,13.0
2022-12-03T07:47:20.461Z,12.6
2022-12-03T07:52:20.451Z,12.3
2022-12-03T07:57:20.470Z,12.3
2022-12-03T08:02:21.829Z,12.4
2022-12-03T08:12:20.541Z,12.6
2022-12-03T08:17:20.468Z,13.2
2022-12-03T08:22:20.497Z,13.8
2022-12-03T08:27:20.475Z,13.1
2022-12-03T08:32:20.600Z,12.8
2022-12-03T08:37:20.476Z,12.5
2022-12-03T08:42:20.482Z,12.5
2022-12-03T08:47:20.480Z,12.9
2022-12-03T08:52:20.488Z,14.0
2022-12-03T08:57:20.501Z,14.4
2022-12-03T09:02:20.487Z,12.7
2022-12-03T09:07:20.487Z,12.9
2022-12-03T09:12:20.498Z,13.4
2022-12-03T09:17:20.497Z,13.5
2022-12-03T09:22:20.506Z,14.1
2022-12-03T09:27:20.511Z,12.7
2022-12-03T09:32:20.582Z,13.0
2022-12-03T09:37:20.512Z,12.9
2022-12-03T09:42:20.518Z,11.9
2022-12-03T09:47:20.515Z,12.7
2022-12-03T09:52:20.551Z,12.6
2022-12-03T09:57:20.539Z,10.9
2022-12-03T10:02:20.607Z,9.0
2022-12-03T10:07:20.530Z,8.8
2022-12-03T10:12:20.530Z,9.7
2022-12-03T10:17:20.610Z,9.4
2022-12-03T10:22:20.538Z,8.6
2022-12-03T10:27:20.526Z,8.4
2022-12-03T10:32:20.530Z,9.4
2022-12-03T10:37:20.661Z,8.4
2022-12-03T10:42:20.539Z,8.2
2022-12-03T10:47:20.716Z,8.0
2022-12-03T10:52:25.437Z,9.4
2022-12-03T10:57:20.552Z,9.1
2022-12-03T11:02:20.547Z,9.5
2022-12-03T11:07:20.546Z,9.3
2022-12-03T11:12:20.555Z,9.6
2022-12-03T11:17:20.550Z,9.3
2022-12-03T11:22:20.633Z,9.6
2022-12-03T11:27:20.558Z,10.4
2022-12-03T11:32:20.571Z,9.5
2022-12-03T11:37:20.565Z,10.8
2022-12-03T11:42:20.593Z,10.3
2022-12-03T11:47:20.693Z,10.0
2022-12-03T11:52:20.575Z,10.6
2022-12-03T11:57:20.568Z,10.3
2022-12-03T12:02:20.578Z,10.9
2022-12-03T12:07:20.571Z,10.2
2022-12-03T12:12:20.577Z,9.6
2022-12-03T12:17:20.587Z,10.1
2022-12-03T12:22:20.588Z,10.8
2022-12-03T12:27:20.585Z,9.7
2022-12-03T12:32:20.589Z,10.8
2022-12-03T12:37:20.593Z,11.3
2022-12-03T12:42:20.587Z,10.0
2022-12-03T12:47:20.683Z,10.3
2022-12-03T12:52:20.596Z,10.1
2022-12-03T12:57:20.594Z,11.2
2022-12-03T13:02:20.641Z,12.5
2022-12-03T13:07:20.606Z,13.5
2022-12-03T13:12:20.631Z,11.8
2022-12-03T13:17:20.615Z,13.1
2022-12-03T13:22:20.613Z,12.2
2022-12-03T13:27:20.620Z,11.9
2022-12-03T13:32:20.618Z,12.7
2022-12-03T13:37:20.616Z,12.8
2022-12-03T13:42:20.624Z,13.1
2022-12-03T13:47:20.619Z,11.0
2022-12-03T13:52:20.870Z,12.5
2022-12-03T13:57:20.625Z,11.4
2022-12-03T14:02:20.691Z,12.0
2022-12-03T14:07:20.628Z,12.2
2022-12-03T14:12:20.638Z,12.3
2022-12-03T14:17:20.641Z,13.4
2022-12-03T14:22:20.647Z,12.7
2022-12-03T14:27:20.635Z,13.6
2022-12-03T14:32:20.644Z,12.7
2022-12-03T14:37:20.654Z,13.0
2022-12-03T14:42:20.659Z,11.3
2022-12-03T14:47:20.652Z,12.3
2022-12-03T14:52:20.662Z,12.5
2022-12-03T14:57:20.690Z,13.3
2022-12-03T15:02:20.702Z,13.0
2022-12-03T15:07:20.659Z,13.4
2022-12-03T15:12:20.669Z,12.1
2022-12-03T15:17:29.446Z,14.7
2022-12-03T15:22:20.666Z,13.6
2022-12-03T15:27:20.669Z,13.6
2022-12-03T15:32:20.663Z,15.6
2022-12-03T15:37:20.670Z,13.1
2022-12-03T15:42:20.673Z,13.5
2022-12-03T15:47:20.677Z,12.8
2022-12-03T15:52:20.693Z,13.3
2022-12-03T15:57:20.685Z,13.8
2022-12-03T16:02:20.838Z,14.0
2022-12-03T16:07:20.692Z,13.4
2022-12-03T16:12:20.681Z,14.3
2022-12-03T16:17:20.682Z,12.3
2022-12-03T16:22:20.692Z,13.0
2022-12-03T16:27:25.456Z,14.5
2022-12-03T16:32:20.693Z,12.5
2022-12-03T16:37:20.690Z,13.6
2022-12-03T16:42:20.789Z,13.1
2022-12-03T16:47:20.700Z,12.1
2022-12-03T16:52:20.702Z,12.3
2022-12-03T16:57:21.007Z,12.9
2022-12-03T17:02:20.790Z,13.7
2022-12-03T17:07:20.757Z,13.9
2022-12-03T17:12:20.705Z,13.3
2022-12-03T17:17:20.722Z,13.0
2022-12-03T17:22:20.720Z,14.4
2022-12-03T17:27:20.727Z,12.6
2022-12-03T17:32:20.723Z,12.4
2022-12-03T17:37:20.717Z,12.3
2022-12-03T17:42:20.782Z,12.9
2022-12-03T17:47:20.826Z,14.4
2022-12-03T17:52:20.760Z,14.3
2022-12-03T17:57:20.729Z,13.8
2022-12-03T18:02:20.793Z,14.8
2022-12-03T18:07:20.731Z,15.5
2022-12-03T18:12:20.736Z,16.2
2022-12-03T18:17:20.739Z,15.1
2022-12-03T18:22:20.749Z,16.0
2022-12-03T18:27:20.745Z,15.0
2022-12-03T18:32:28.940Z,16.1
2022-12-03T18:37:20.741Z,15.6
2022-12-03T18:42:20.754Z,16.4
2022-12-03T18:47:20.850Z,16.5
2022-12-03T18:52:20.766Z,15.6
2022-12-03T18:57:20.757Z,16.6
2022-12-03T19:02:54.116Z,17.0
2022-12-03T19:07:20.820Z,16.6
2022-12-03T19:12:20.762Z,16.3
2022-12-03T19:17:20.768Z,15.8
2022-12-03T19:22:20.768Z,17.1
2022-12-03T19:27:20.782Z,17.6
2022-12-03T19:32:20.797Z,16.6
2022-12-03T19:37:20.776Z,16.3
2022-12-03T19:42:20.782Z,17.2
2022-12-03T19:47:20.810Z,17.3
2022-12-03T19:52:20.783Z,15.2
2022-12-03T19:57:23.485Z,15.9
2022-12-03T20:02:20.882Z,16.5
2022-12-03T20:07:20.786Z,16.5
2022-12-03T20:12:20.791Z,16.5
2022-12-03T20:17:20.786Z,16.9
2022-12-03T20:22:20.812Z,16.9
2022-12-03T20:27:22.960Z,17.2
2022-12-03T20:32:20.945Z,17.7
2022-12-03T20:37:20.833Z,16.9
2022-12-03T20:42:20.804Z,16.3
2022-12-03T20:47:20.804Z,18.2
2022-12-03T20:52:20.827Z,17.3
2022-12-03T20:57:20.810Z,18.7
2022-12-03T21:02:20.946Z,17.0
2022-12-03T21:07:20.810Z,19.0
2022-12-03T21:12:20.813Z,18.3
2022-12-03T21:17:21.029Z,18.0
2022-12-03T21:22:20.822Z,16.5
2022-12-03T21:27:21.936Z,17.9
2022-12-03T21:32:20.826Z,17.5
2022-12-03T21:37:20.835Z,17.9
2022-12-03T21:42:35.505Z,17.3
2022-12-03T21:47:20.957Z,17.4
2022-12-03T21:52:20.835Z,18.6
2022-12-03T21:57:20.840Z,18.1
2022-12-03T22:02:20.936Z,18.5
2022-12-03T22:07:20.844Z,17.9
2022-12-03T22:12:20.877Z,17.8
2022-12-03T22:17:20.848Z,18.6
2022-12-03T22:22:20.851Z,18.3
2022-12-03T22:27:20.857Z,18.0
2022-12-03T22:32:20.853Z,17.1
2022-12-03T22:37:20.908Z,17.3
2022-12-03T22:42:20.861Z,16.7
2022-12-03T22:47:20.866Z,18.6
2022-12-03T22:52:20.877Z,17.1
2022-12-03T22:57:20.865Z,17.9
2022-12-03T23:02:20.934Z,18.3
2022-12-03T23:07:20.872Z,18.9
2022-12-03T23:12:20.931Z,18.2
2022-12-03T23:17:20.868Z,18.0
2022-12-03T23:22:20.892Z,17.7
2022-12-03T23:27:20.878Z,17.8
2022-12-03T23:32:20.884Z,19.2
2022-12-03T23:37:20.881Z,18.2
2022-12-03T23:42:20.890Z,18.5
2022-12-03T23:47:20.895Z,17.6
2022-12-03T23:52:21.072Z,16.7
2022-12-03T23:57:20.897Z,17.4
